sensor_id;sensor_type;location;lat;lon;timestamp;P1;durP1;ratioP1;P2;durP2;ratioP2
5042;SDS011;2540;50.928;6.856;2023-06-22T00:02:14;6.73;;;3.70;;
5042;SDS011;2540;50.928;6.856;2023-06-22T00:04:40;4.37;;;3.93;;
5042;SDS011;2540;50.928;6.856;2023-06-22T00:07:05;5.40;;;3.67;;
5042;SDS011;2540;50.928;6.856;2023-06-22T00:09:30;8.20;;;4.17;;
5042;SDS011;2540;50.928;6.856;2023-06-22T00:11:56;7.80;;;3.90;;
5042;SDS011;2540;50.928;6.856;2023-06-22T00:14:21;5.83;;;4.40;;
5042;SDS011;2540;50.928;6.856;2023-06-22T00:16:47;7.33;;;4.20;;
5042;SDS011;2540;50.928;6.856;2023-06-22T00:19:13;5.50;;;3.50;;
5042;SDS011;2540;50.928;6.856;2023-06-22T00:21:39;7.10;;;4.33;;
5042;SDS011;2540;50.928;6.856;2023-06-22T00:24:04;6.60;;;3.57;;
5042;SDS011;2540;50.928;6.856;2023-06-22T00:26:31;6.67;;;4.53;;
5042;SDS011;2540;50.928;6.856;2023-06-22T00:28:56;7.20;;;4.30;;
5042;SDS011;2540;50.928;6.856;2023-06-22T00:31:21;6.33;;;4.10;;
5042;SDS011;2540;50.928;6.856;2023-06-22T00:33:47;6.20;;;3.97;;
5042;SDS011;2540;50.928;6.856;2023-06-22T00:36:12;7.83;;;3.80;;
5042;SDS011;2540;50.928;6.856;2023-06-22T00:38:41;5.63;;;4.17;;
5042;SDS011;2540;50.928;6.856;2023-06-22T00:41:06;6.40;;;3.87;;
5042;SDS011;2540;50.928;6.856;2023-06-22T00:43:32;5.77;;;4.10;;
5042;SDS011;2540;50.928;6.856;2023-06-22T00:45:57;6.63;;;3.97;;
5042;SDS011;2540;50.928;6.856;2023-06-22T00:48:22;4.90;;;3.70;;
5042;SDS011;2540;50.928;6.856;2023-06-22T00:50:48;4.70;;;3.20;;
5042;SDS011;2540;50.928;6.856;2023-06-22T00:53:16;7.57;;;4.53;;
5042;SDS011;2540;50.928;6.856;2023-06-22T00:55:43;3.77;;;3.20;;
5042;SDS011;2540;50.928;6.856;2023-06-22T00:58:10;6.40;;;3.80;;
5042;SDS011;2540;50.928;6.856;2023-06-22T01:00:36;7.33;;;4.00;;
5042;SDS011;2540;50.928;6.856;2023-06-22T01:03:02;4.80;;;3.60;;
5042;SDS011;2540;50.928;6.856;2023-06-22T01:05:28;4.80;;;3.90;;
5042;SDS011;2540;50.928;6.856;2023-06-22T01:13:02;4.97;;;3.83;;
5042;SDS011;2540;50.928;6.856;2023-06-22T01:15:44;9.53;;;4.00;;
5042;SDS011;2540;50.928;6.856;2023-06-22T01:18:31;8.50;;;4.90;;
5042;SDS011;2540;50.928;6.856;2023-06-22T01:20:58;5.63;;;4.17;;
5042;SDS011;2540;50.928;6.856;2023-06-22T01:23:41;7.13;;;3.87;;
5042;SDS011;2540;50.928;6.856;2023-06-22T01:26:22;6.67;;;3.97;;
5042;SDS011;2540;50.928;6.856;2023-06-22T01:28:53;5.60;;;3.70;;
5042;SDS011;2540;50.928;6.856;2023-06-22T01:31:26;6.07;;;4.07;;
5042;SDS011;2540;50.928;6.856;2023-06-22T01:33:57;5.80;;;4.43;;
5042;SDS011;2540;50.928;6.856;2023-06-22T01:36:24;5.13;;;4.07;;
5042;SDS011;2540;50.928;6.856;2023-06-22T01:38:51;5.23;;;3.97;;
5042;SDS011;2540;50.928;6.856;2023-06-22T01:41:17;5.37;;;4.20;;
5042;SDS011;2540;50.928;6.856;2023-06-22T01:43:43;5.10;;;3.40;;
5042;SDS011;2540;50.928;6.856;2023-06-22T01:46:08;4.40;;;3.60;;
5042;SDS011;2540;50.928;6.856;2023-06-22T01:48:34;4.90;;;3.50;;
5042;SDS011;2540;50.928;6.856;2023-06-22T01:51:00;6.87;;;4.10;;
5042;SDS011;2540;50.928;6.856;2023-06-22T01:53:26;5.03;;;3.57;;
5042;SDS011;2540;50.928;6.856;2023-06-22T01:55:51;8.37;;;3.80;;
5042;SDS011;2540;50.928;6.856;2023-06-22T01:58:16;10.43;;;4.50;;
5042;SDS011;2540;50.928;6.856;2023-06-22T02:00:48;7.00;;;3.47;;
5042;SDS011;2540;50.928;6.856;2023-06-22T02:03:18;7.50;;;4.67;;
5042;SDS011;2540;50.928;6.856;2023-06-22T02:06:04;4.83;;;3.70;;
5042;SDS011;2540;50.928;6.856;2023-06-22T02:08:35;3.73;;;3.30;;
5042;SDS011;2540;50.928;6.856;2023-06-22T02:11:04;13.63;;;3.67;;
5042;SDS011;2540;50.928;6.856;2023-06-22T02:13:31;4.53;;;3.80;;
5042;SDS011;2540;50.928;6.856;2023-06-22T02:15:57;12.33;;;3.83;;
5042;SDS011;2540;50.928;6.856;2023-06-22T02:18:22;4.67;;;3.50;;
5042;SDS011;2540;50.928;6.856;2023-06-22T02:20:48;4.17;;;3.37;;
5042;SDS011;2540;50.928;6.856;2023-06-22T02:23:13;6.27;;;4.20;;
5042;SDS011;2540;50.928;6.856;2023-06-22T02:25:38;5.10;;;3.87;;
5042;SDS011;2540;50.928;6.856;2023-06-22T02:28:04;6.93;;;3.50;;
5042;SDS011;2540;50.928;6.856;2023-06-22T02:30:30;8.90;;;3.70;;
5042;SDS011;2540;50.928;6.856;2023-06-22T02:32:55;6.30;;;3.57;;
5042;SDS011;2540;50.928;6.856;2023-06-22T02:35:27;5.23;;;3.30;;
5042;SDS011;2540;50.928;6.856;2023-06-22T02:37:56;7.27;;;3.40;;
5042;SDS011;2540;50.928;6.856;2023-06-22T02:40:22;11.83;;;3.40;;
5042;SDS011;2540;50.928;6.856;2023-06-22T02:42:47;5.60;;;3.80;;
5042;SDS011;2540;50.928;6.856;2023-06-22T02:45:13;4.43;;;3.47;;
5042;SDS011;2540;50.928;6.856;2023-06-22T02:47:38;5.13;;;3.53;;
5042;SDS011;2540;50.928;6.856;2023-06-22T02:50:04;10.87;;;3.87;;
5042;SDS011;2540;50.928;6.856;2023-06-22T02:52:29;7.23;;;3.00;;
5042;SDS011;2540;50.928;6.856;2023-06-22T02:54:54;9.83;;;4.00;;
5042;SDS011;2540;50.928;6.856;2023-06-22T02:57:20;6.47;;;4.13;;
5042;SDS011;2540;50.928;6.856;2023-06-22T02:59:45;6.57;;;3.63;;
5042;SDS011;2540;50.928;6.856;2023-06-22T03:02:10;5.40;;;3.80;;
5042;SDS011;2540;50.928;6.856;2023-06-22T03:04:36;8.83;;;3.80;;
5042;SDS011;2540;50.928;6.856;2023-06-22T03:07:01;6.40;;;4.00;;
5042;SDS011;2540;50.928;6.856;2023-06-22T03:09:27;6.27;;;3.87;;
5042;SDS011;2540;50.928;6.856;2023-06-22T03:11:53;4.53;;;3.53;;
5042;SDS011;2540;50.928;6.856;2023-06-22T03:14:19;5.10;;;3.37;;
5042;SDS011;2540;50.928;6.856;2023-06-22T03:16:44;5.20;;;3.17;;
5042;SDS011;2540;50.928;6.856;2023-06-22T03:19:10;7.83;;;3.87;;
5042;SDS011;2540;50.928;6.856;2023-06-22T03:21:36;4.47;;;3.10;;
5042;SDS011;2540;50.928;6.856;2023-06-22T03:24:03;6.37;;;3.80;;
5042;SDS011;2540;50.928;6.856;2023-06-22T03:26:29;6.10;;;3.23;;
5042;SDS011;2540;50.928;6.856;2023-06-22T03:28:54;4.77;;;3.53;;
5042;SDS011;2540;50.928;6.856;2023-06-22T03:31:20;6.73;;;3.90;;
5042;SDS011;2540;50.928;6.856;2023-06-22T03:33:46;11.33;;;3.60;;
5042;SDS011;2540;50.928;6.856;2023-06-22T03:36:13;7.73;;;4.00;;
5042;SDS011;2540;50.928;6.856;2023-06-22T03:38:38;10.53;;;4.33;;
5042;SDS011;2540;50.928;6.856;2023-06-22T03:41:04;5.00;;;3.63;;
5042;SDS011;2540;50.928;6.856;2023-06-22T03:43:29;6.17;;;3.87;;
5042;SDS011;2540;50.928;6.856;2023-06-22T03:45:54;10.37;;;3.97;;
5042;SDS011;2540;50.928;6.856;2023-06-22T03:48:20;5.53;;;3.70;;
5042;SDS011;2540;50.928;6.856;2023-06-22T03:50:45;12.03;;;3.37;;
5042;SDS011;2540;50.928;6.856;2023-06-22T03:53:10;6.57;;;4.03;;
5042;SDS011;2540;50.928;6.856;2023-06-22T03:55:36;8.37;;;4.03;;
5042;SDS011;2540;50.928;6.856;2023-06-22T03:58:01;6.23;;;4.20;;
5042;SDS011;2540;50.928;6.856;2023-06-22T04:00:30;6.27;;;4.03;;
5042;SDS011;2540;50.928;6.856;2023-06-22T04:02:56;7.43;;;3.90;;
5042;SDS011;2540;50.928;6.856;2023-06-22T04:05:22;7.13;;;3.63;;
5042;SDS011;2540;50.928;6.856;2023-06-22T04:07:48;7.60;;;3.50;;
5042;SDS011;2540;50.928;6.856;2023-06-22T04:10:13;7.17;;;3.93;;
5042;SDS011;2540;50.928;6.856;2023-06-22T04:12:38;9.10;;;4.17;;
5042;SDS011;2540;50.928;6.856;2023-06-22T04:15:04;5.90;;;4.10;;
5042;SDS011;2540;50.928;6.856;2023-06-22T04:17:29;5.13;;;3.90;;
5042;SDS011;2540;50.928;6.856;2023-06-22T04:19:55;6.70;;;4.20;;
5042;SDS011;2540;50.928;6.856;2023-06-22T04:22:20;5.70;;;4.27;;
5042;SDS011;2540;50.928;6.856;2023-06-22T04:24:45;6.57;;;3.93;;
5042;SDS011;2540;50.928;6.856;2023-06-22T04:27:11;7.23;;;3.80;;
5042;SDS011;2540;50.928;6.856;2023-06-22T04:29:37;6.03;;;3.90;;
5042;SDS011;2540;50.928;6.856;2023-06-22T04:32:03;5.67;;;4.20;;
5042;SDS011;2540;50.928;6.856;2023-06-22T04:34:30;5.93;;;4.63;;
5042;SDS011;2540;50.928;6.856;2023-06-22T04:36:55;5.90;;;3.83;;
5042;SDS011;2540;50.928;6.856;2023-06-22T04:39:21;13.13;;;4.00;;
5042;SDS011;2540;50.928;6.856;2023-06-22T04:41:46;11.37;;;4.90;;
5042;SDS011;2540;50.928;6.856;2023-06-22T04:44:12;5.30;;;3.80;;
5042;SDS011;2540;50.928;6.856;2023-06-22T04:46:38;7.20;;;3.60;;
5042;SDS011;2540;50.928;6.856;2023-06-22T04:49:07;8.30;;;4.70;;
5042;SDS011;2540;50.928;6.856;2023-06-22T04:51:37;5.93;;;3.97;;
5042;SDS011;2540;50.928;6.856;2023-06-22T04:54:04;8.53;;;4.30;;
5042;SDS011;2540;50.928;6.856;2023-06-22T04:56:30;7.07;;;3.90;;
5042;SDS011;2540;50.928;6.856;2023-06-22T04:58:56;7.67;;;4.37;;
5042;SDS011;2540;50.928;6.856;2023-06-22T05:01:22;7.77;;;4.70;;
5042;SDS011;2540;50.928;6.856;2023-06-22T05:03:53;6.20;;;4.30;;
5042;SDS011;2540;50.928;6.856;2023-06-22T05:06:22;6.37;;;4.37;;
5042;SDS011;2540;50.928;6.856;2023-06-22T05:08:50;4.80;;;3.70;;
5042;SDS011;2540;50.928;6.856;2023-06-22T05:11:17;6.10;;;4.33;;
5042;SDS011;2540;50.928;6.856;2023-06-22T05:13:42;7.83;;;4.70;;
5042;SDS011;2540;50.928;6.856;2023-06-22T05:16:07;4.90;;;3.63;;
5042;SDS011;2540;50.928;6.856;2023-06-22T05:18:33;5.70;;;3.57;;
5042;SDS011;2540;50.928;6.856;2023-06-22T05:20:59;7.10;;;4.37;;
5042;SDS011;2540;50.928;6.856;2023-06-22T05:23:25;6.30;;;3.90;;
5042;SDS011;2540;50.928;6.856;2023-06-22T05:25:51;6.03;;;4.00;;
5042;SDS011;2540;50.928;6.856;2023-06-22T05:28:16;8.10;;;3.90;;
5042;SDS011;2540;50.928;6.856;2023-06-22T05:30:41;7.07;;;4.10;;
5042;SDS011;2540;50.928;6.856;2023-06-22T05:33:07;18.30;;;4.77;;
5042;SDS011;2540;50.928;6.856;2023-06-22T05:35:32;5.43;;;3.70;;
5042;SDS011;2540;50.928;6.856;2023-06-22T05:37:57;8.43;;;4.20;;
5042;SDS011;2540;50.928;6.856;2023-06-22T05:40:22;12.53;;;4.30;;
5042;SDS011;2540;50.928;6.856;2023-06-22T05:42:48;6.60;;;4.60;;
5042;SDS011;2540;50.928;6.856;2023-06-22T05:45:13;4.93;;;3.83;;
5042;SDS011;2540;50.928;6.856;2023-06-22T05:47:38;10.00;;;4.43;;
5042;SDS011;2540;50.928;6.856;2023-06-22T05:50:04;11.27;;;5.37;;
5042;SDS011;2540;50.928;6.856;2023-06-22T05:52:33;8.73;;;4.23;;
5042;SDS011;2540;50.928;6.856;2023-06-22T05:54:58;9.00;;;5.00;;
5042;SDS011;2540;50.928;6.856;2023-06-22T05:57:23;6.07;;;4.27;;
5042;SDS011;2540;50.928;6.856;2023-06-22T05:59:49;12.43;;;5.10;;
5042;SDS011;2540;50.928;6.856;2023-06-22T06:02:14;9.90;;;5.23;;
5042;SDS011;2540;50.928;6.856;2023-06-22T06:04:39;5.97;;;4.40;;
5042;SDS011;2540;50.928;6.856;2023-06-22T06:07:05;15.07;;;5.90;;
5042;SDS011;2540;50.928;6.856;2023-06-22T06:09:30;14.20;;;6.43;;
5042;SDS011;2540;50.928;6.856;2023-06-22T06:11:55;8.50;;;6.00;;
5042;SDS011;2540;50.928;6.856;2023-06-22T06:14:21;15.20;;;6.50;;
5042;SDS011;2540;50.928;6.856;2023-06-22T06:16:46;10.60;;;6.10;;
5042;SDS011;2540;50.928;6.856;2023-06-22T06:19:15;14.83;;;5.97;;
5042;SDS011;2540;50.928;6.856;2023-06-22T06:21:41;10.70;;;6.90;;
5042;SDS011;2540;50.928;6.856;2023-06-22T06:24:06;9.40;;;7.27;;
5042;SDS011;2540;50.928;6.856;2023-06-22T06:26:31;10.93;;;7.00;;
5042;SDS011;2540;50.928;6.856;2023-06-22T06:29:10;9.97;;;7.03;;
5042;SDS011;2540;50.928;6.856;2023-06-22T06:31:35;9.23;;;6.70;;
5042;SDS011;2540;50.928;6.856;2023-06-22T06:34:01;10.80;;;7.10;;
5042;SDS011;2540;50.928;6.856;2023-06-22T06:36:27;12.00;;;7.50;;
5042;SDS011;2540;50.928;6.856;2023-06-22T06:38:52;14.47;;;8.77;;
5042;SDS011;2540;50.928;6.856;2023-06-22T06:41:18;9.60;;;7.17;;
5042;SDS011;2540;50.928;6.856;2023-06-22T06:43:44;11.37;;;7.73;;
5042;SDS011;2540;50.928;6.856;2023-06-22T06:46:09;11.03;;;8.37;;
5042;SDS011;2540;50.928;6.856;2023-06-22T06:48:35;13.97;;;9.00;;
5042;SDS011;2540;50.928;6.856;2023-06-22T06:51:00;12.13;;;7.87;;
5042;SDS011;2540;50.928;6.856;2023-06-22T06:53:25;9.67;;;8.00;;
5042;SDS011;2540;50.928;6.856;2023-06-22T06:55:51;11.07;;;8.27;;
5042;SDS011;2540;50.928;6.856;2023-06-22T06:58:17;11.07;;;7.73;;
5042;SDS011;2540;50.928;6.856;2023-06-22T07:00:42;10.53;;;7.50;;
5042;SDS011;2540;50.928;6.856;2023-06-22T07:03:08;10.47;;;8.30;;
5042;SDS011;2540;50.928;6.856;2023-06-22T07:05:34;12.30;;;8.50;;
5042;SDS011;2540;50.928;6.856;2023-06-22T07:08:00;12.83;;;7.80;;
5042;SDS011;2540;50.928;6.856;2023-06-22T07:10:25;11.23;;;7.63;;
5042;SDS011;2540;50.928;6.856;2023-06-22T07:12:50;9.67;;;7.53;;
5042;SDS011;2540;50.928;6.856;2023-06-22T07:15:16;11.83;;;7.77;;
5042;SDS011;2540;50.928;6.856;2023-06-22T07:20:39;11.90;;;8.10;;
5042;SDS011;2540;50.928;6.856;2023-06-22T07:23:06;11.40;;;8.10;;
5042;SDS011;2540;50.928;6.856;2023-06-22T07:25:31;13.63;;;8.57;;
5042;SDS011;2540;50.928;6.856;2023-06-22T07:28:00;9.37;;;7.00;;
5042;SDS011;2540;50.928;6.856;2023-06-22T07:30:30;16.10;;;8.17;;
5042;SDS011;2540;50.928;6.856;2023-06-22T07:32:56;12.37;;;8.47;;
5042;SDS011;2540;50.928;6.856;2023-06-22T07:35:23;9.70;;;7.63;;
5042;SDS011;2540;50.928;6.856;2023-06-22T07:37:48;16.80;;;8.43;;
5042;SDS011;2540;50.928;6.856;2023-06-22T07:40:13;12.23;;;7.93;;
5042;SDS011;2540;50.928;6.856;2023-06-22T07:42:39;10.00;;;7.57;;
5042;SDS011;2540;50.928;6.856;2023-06-22T07:45:04;12.33;;;7.30;;
5042;SDS011;2540;50.928;6.856;2023-06-22T07:47:32;10.20;;;7.73;;
5042;SDS011;2540;50.928;6.856;2023-06-22T07:50:00;8.53;;;6.97;;
5042;SDS011;2540;50.928;6.856;2023-06-22T07:52:26;26.93;;;8.23;;
5042;SDS011;2540;50.928;6.856;2023-06-22T07:54:52;10.30;;;6.93;;
5042;SDS011;2540;50.928;6.856;2023-06-22T07:57:18;11.20;;;7.13;;
5042;SDS011;2540;50.928;6.856;2023-06-22T07:59:43;12.40;;;8.63;;
5042;SDS011;2540;50.928;6.856;2023-06-22T08:02:09;11.67;;;7.77;;
5042;SDS011;2540;50.928;6.856;2023-06-22T08:04:34;11.57;;;7.50;;
5042;SDS011;2540;50.928;6.856;2023-06-22T08:07:00;12.63;;;8.43;;
5042;SDS011;2540;50.928;6.856;2023-06-22T08:09:27;14.40;;;7.40;;
5042;SDS011;2540;50.928;6.856;2023-06-22T08:11:53;11.87;;;6.97;;
5042;SDS011;2540;50.928;6.856;2023-06-22T08:14:20;9.70;;;7.30;;
5042;SDS011;2540;50.928;6.856;2023-06-22T08:16:45;9.67;;;6.57;;
5042;SDS011;2540;50.928;6.856;2023-06-22T08:19:11;14.97;;;8.10;;
5042;SDS011;2540;50.928;6.856;2023-06-22T08:21:36;13.43;;;7.13;;
5042;SDS011;2540;50.928;6.856;2023-06-22T08:24:02;12.70;;;7.27;;
5042;SDS011;2540;50.928;6.856;2023-06-22T08:26:28;12.70;;;7.63;;
5042;SDS011;2540;50.928;6.856;2023-06-22T08:28:53;14.77;;;7.23;;
5042;SDS011;2540;50.928;6.856;2023-06-22T08:31:19;13.00;;;6.67;;
5042;SDS011;2540;50.928;6.856;2023-06-22T08:33:44;12.70;;;7.37;;
5042;SDS011;2540;50.928;6.856;2023-06-22T08:36:11;8.83;;;6.10;;
5042;SDS011;2540;50.928;6.856;2023-06-22T08:38:39;8.40;;;6.50;;
5042;SDS011;2540;50.928;6.856;2023-06-22T08:41:05;11.70;;;7.40;;
5042;SDS011;2540;50.928;6.856;2023-06-22T08:43:30;9.63;;;7.37;;
5042;SDS011;2540;50.928;6.856;2023-06-22T08:45:55;13.40;;;7.30;;
5042;SDS011;2540;50.928;6.856;2023-06-22T08:48:21;11.50;;;8.07;;
5042;SDS011;2540;50.928;6.856;2023-06-22T08:50:46;10.93;;;7.37;;
5042;SDS011;2540;50.928;6.856;2023-06-22T08:53:14;15.03;;;7.70;;
5042;SDS011;2540;50.928;6.856;2023-06-22T08:55:39;12.60;;;6.90;;
5042;SDS011;2540;50.928;6.856;2023-06-22T08:58:04;10.30;;;7.70;;
5042;SDS011;2540;50.928;6.856;2023-06-22T09:00:30;9.30;;;6.67;;
5042;SDS011;2540;50.928;6.856;2023-06-22T09:02:57;8.43;;;6.23;;
5042;SDS011;2540;50.928;6.856;2023-06-22T09:05:24;9.97;;;6.53;;
5042;SDS011;2540;50.928;6.856;2023-06-22T09:07:51;7.00;;;6.17;;
5042;SDS011;2540;50.928;6.856;2023-06-22T09:10:16;8.10;;;6.57;;
5042;SDS011;2540;50.928;6.856;2023-06-22T09:12:41;13.20;;;6.70;;
5042;SDS011;2540;50.928;6.856;2023-06-22T09:15:07;11.50;;;6.90;;
5042;SDS011;2540;50.928;6.856;2023-06-22T09:17:33;12.20;;;7.90;;
5042;SDS011;2540;50.928;6.856;2023-06-22T09:19:59;9.20;;;6.70;;
5042;SDS011;2540;50.928;6.856;2023-06-22T09:22:24;7.70;;;6.30;;
5042;SDS011;2540;50.928;6.856;2023-06-22T09:24:54;12.53;;;6.97;;
5042;SDS011;2540;50.928;6.856;2023-06-22T09:27:19;14.60;;;7.10;;
5042;SDS011;2540;50.928;6.856;2023-06-22T09:29:44;16.47;;;6.60;;
5042;SDS011;2540;50.928;6.856;2023-06-22T09:32:10;8.53;;;6.87;;
5042;SDS011;2540;50.928;6.856;2023-06-22T09:34:35;9.83;;;7.10;;
5042;SDS011;2540;50.928;6.856;2023-06-22T09:37:00;7.93;;;5.67;;
5042;SDS011;2540;50.928;6.856;2023-06-22T09:39:26;7.83;;;6.50;;
5042;SDS011;2540;50.928;6.856;2023-06-22T09:41:51;11.03;;;7.20;;
5042;SDS011;2540;50.928;6.856;2023-06-22T09:44:16;12.87;;;6.13;;
5042;SDS011;2540;50.928;6.856;2023-06-22T09:46:42;11.07;;;6.63;;
5042;SDS011;2540;50.928;6.856;2023-06-22T09:49:07;18.43;;;6.27;;
5042;SDS011;2540;50.928;6.856;2023-06-22T09:51:32;7.07;;;6.20;;
5042;SDS011;2540;50.928;6.856;2023-06-22T09:53:58;10.53;;;7.13;;
5042;SDS011;2540;50.928;6.856;2023-06-22T09:56:23;9.53;;;6.20;;
5042;SDS011;2540;50.928;6.856;2023-06-22T09:58:48;6.80;;;6.10;;
5042;SDS011;2540;50.928;6.856;2023-06-22T10:01:17;10.00;;;6.27;;
5042;SDS011;2540;50.928;6.856;2023-06-22T10:03:43;8.70;;;7.00;;
5042;SDS011;2540;50.928;6.856;2023-06-22T10:06:08;14.10;;;6.80;;
5042;SDS011;2540;50.928;6.856;2023-06-22T10:08:34;9.40;;;6.70;;
5042;SDS011;2540;50.928;6.856;2023-06-22T10:10:59;10.03;;;6.97;;
5042;SDS011;2540;50.928;6.856;2023-06-22T10:13:25;10.20;;;6.97;;
5042;SDS011;2540;50.928;6.856;2023-06-22T10:15:50;19.33;;;7.57;;
5042;SDS011;2540;50.928;6.856;2023-06-22T10:18:17;10.47;;;7.07;;
5042;SDS011;2540;50.928;6.856;2023-06-22T10:20:43;9.47;;;7.70;;
5042;SDS011;2540;50.928;6.856;2023-06-22T10:23:08;8.67;;;6.73;;
5042;SDS011;2540;50.928;6.856;2023-06-22T10:25:34;10.40;;;7.50;;
5042;SDS011;2540;50.928;6.856;2023-06-22T10:27:59;11.63;;;8.27;;
5042;SDS011;2540;50.928;6.856;2023-06-22T10:30:24;11.80;;;8.87;;
5042;SDS011;2540;50.928;6.856;2023-06-22T10:32:50;17.27;;;9.50;;
5042;SDS011;2540;50.928;6.856;2023-06-22T10:35:15;15.43;;;9.77;;
5042;SDS011;2540;50.928;6.856;2023-06-22T10:37:41;16.87;;;9.67;;
5042;SDS011;2540;50.928;6.856;2023-06-22T10:40:11;18.70;;;10.90;;
5042;SDS011;2540;50.928;6.856;2023-06-22T10:42:37;15.00;;;10.63;;
5042;SDS011;2540;50.928;6.856;2023-06-22T10:45:03;19.80;;;11.30;;
5042;SDS011;2540;50.928;6.856;2023-06-22T10:47:28;18.37;;;11.27;;
5042;SDS011;2540;50.928;6.856;2023-06-22T10:49:53;18.27;;;12.27;;
5042;SDS011;2540;50.928;6.856;2023-06-22T10:52:19;15.97;;;11.83;;
5042;SDS011;2540;50.928;6.856;2023-06-22T10:54:44;24.27;;;13.07;;
5042;SDS011;2540;50.928;6.856;2023-06-22T10:57:09;19.90;;;12.87;;
5042;SDS011;2540;50.928;6.856;2023-06-22T10:59:35;42.40;;;14.27;;
5042;SDS011;2540;50.928;6.856;2023-06-22T11:02:00;24.77;;;14.10;;
5042;SDS011;2540;50.928;6.856;2023-06-22T11:04:25;23.57;;;13.17;;
5042;SDS011;2540;50.928;6.856;2023-06-22T11:06:51;17.63;;;12.73;;
5042;SDS011;2540;50.928;6.856;2023-06-22T11:09:16;20.80;;;13.20;;
5042;SDS011;2540;50.928;6.856;2023-06-22T11:11:45;25.50;;;12.83;;
5042;SDS011;2540;50.928;6.856;2023-06-22T11:14:10;35.20;;;14.97;;
5042;SDS011;2540;50.928;6.856;2023-06-22T11:16:36;35.63;;;15.00;;
5042;SDS011;2540;50.928;6.856;2023-06-22T11:19:01;25.13;;;14.37;;
5042;SDS011;2540;50.928;6.856;2023-06-22T11:21:28;24.67;;;15.70;;
5042;SDS011;2540;50.928;6.856;2023-06-22T11:23:53;24.60;;;16.20;;
5042;SDS011;2540;50.928;6.856;2023-06-22T11:26:18;24.83;;;15.60;;
5042;SDS011;2540;50.928;6.856;2023-06-22T11:28:44;31.03;;;16.13;;
5042;SDS011;2540;50.928;6.856;2023-06-22T11:31:09;27.80;;;16.80;;
5042;SDS011;2540;50.928;6.856;2023-06-22T11:33:34;24.33;;;15.40;;
5042;SDS011;2540;50.928;6.856;2023-06-22T11:36:00;30.13;;;14.50;;
5042;SDS011;2540;50.928;6.856;2023-06-22T11:38:25;28.90;;;15.60;;
5042;SDS011;2540;50.928;6.856;2023-06-22T11:40:50;22.70;;;15.23;;
5042;SDS011;2540;50.928;6.856;2023-06-22T11:43:16;23.57;;;15.50;;
5042;SDS011;2540;50.928;6.856;2023-06-22T11:45:41;21.07;;;13.77;;
5042;SDS011;2540;50.928;6.856;2023-06-22T11:48:06;23.03;;;14.37;;
5042;SDS011;2540;50.928;6.856;2023-06-22T11:50:32;32.37;;;15.23;;
5042;SDS011;2540;50.928;6.856;2023-06-22T11:53:00;29.30;;;16.40;;
5042;SDS011;2540;50.928;6.856;2023-06-22T11:55:26;26.43;;;16.00;;
5042;SDS011;2540;50.928;6.856;2023-06-22T11:57:53;20.57;;;14.60;;
5042;SDS011;2540;50.928;6.856;2023-06-22T12:00:20;21.90;;;14.80;;
5042;SDS011;2540;50.928;6.856;2023-06-22T12:02:48;23.23;;;14.07;;
5042;SDS011;2540;50.928;6.856;2023-06-22T12:05:13;23.73;;;15.30;;
5042;SDS011;2540;50.928;6.856;2023-06-22T12:07:38;22.50;;;14.60;;
5042;SDS011;2540;50.928;6.856;2023-06-22T12:10:04;25.40;;;13.67;;
5042;SDS011;2540;50.928;6.856;2023-06-22T12:12:29;22.80;;;14.13;;
5042;SDS011;2540;50.928;6.856;2023-06-22T12:14:55;20.60;;;13.10;;
5042;SDS011;2540;50.928;6.856;2023-06-22T12:17:20;19.50;;;13.10;;
5042;SDS011;2540;50.928;6.856;2023-06-22T12:19:45;16.80;;;10.80;;
5042;SDS011;2540;50.928;6.856;2023-06-22T12:22:11;18.90;;;12.60;;
5042;SDS011;2540;50.928;6.856;2023-06-22T12:24:36;18.27;;;12.43;;
5042;SDS011;2540;50.928;6.856;2023-06-22T12:27:01;20.00;;;13.00;;
5042;SDS011;2540;50.928;6.856;2023-06-22T12:29:28;19.80;;;13.90;;
5042;SDS011;2540;50.928;6.856;2023-06-22T12:31:53;23.50;;;13.90;;
5042;SDS011;2540;50.928;6.856;2023-06-22T12:34:19;19.57;;;14.30;;
5042;SDS011;2540;50.928;6.856;2023-06-22T12:36:44;19.73;;;14.03;;
5042;SDS011;2540;50.928;6.856;2023-06-22T12:39:09;20.07;;;13.40;;
5042;SDS011;2540;50.928;6.856;2023-06-22T12:41:34;21.43;;;13.50;;
5042;SDS011;2540;50.928;6.856;2023-06-22T12:44:00;17.90;;;12.20;;
5042;SDS011;2540;50.928;6.856;2023-06-22T12:46:25;16.80;;;12.37;;
5042;SDS011;2540;50.928;6.856;2023-06-22T12:48:50;19.33;;;11.70;;
5042;SDS011;2540;50.928;6.856;2023-06-22T12:51:22;19.93;;;13.57;;
5042;SDS011;2540;50.928;6.856;2023-06-22T12:53:47;18.77;;;11.77;;
5042;SDS011;2540;50.928;6.856;2023-06-22T12:56:13;24.37;;;14.10;;
5042;SDS011;2540;50.928;6.856;2023-06-22T12:58:38;18.83;;;13.70;;
5042;SDS011;2540;50.928;6.856;2023-06-22T13:01:03;19.73;;;13.40;;
5042;SDS011;2540;50.928;6.856;2023-06-22T13:03:29;19.73;;;13.50;;
5042;SDS011;2540;50.928;6.856;2023-06-22T13:05:54;18.47;;;12.93;;
5042;SDS011;2540;50.928;6.856;2023-06-22T13:08:19;16.37;;;11.93;;
5042;SDS011;2540;50.928;6.856;2023-06-22T13:10:45;17.43;;;10.53;;
5042;SDS011;2540;50.928;6.856;2023-06-22T13:13:10;17.83;;;10.83;;
5042;SDS011;2540;50.928;6.856;2023-06-22T13:15:35;13.70;;;10.40;;
5042;SDS011;2540;50.928;6.856;2023-06-22T13:18:01;13.10;;;9.40;;
5042;SDS011;2540;50.928;6.856;2023-06-22T13:20:26;12.37;;;9.30;;
5042;SDS011;2540;50.928;6.856;2023-06-22T13:22:53;14.90;;;9.07;;
5042;SDS011;2540;50.928;6.856;2023-06-22T13:25:19;12.30;;;9.13;;
5042;SDS011;2540;50.928;6.856;2023-06-22T13:27:47;11.83;;;8.03;;
5042;SDS011;2540;50.928;6.856;2023-06-22T13:30:12;12.73;;;8.80;;
5042;SDS011;2540;50.928;6.856;2023-06-22T13:32:38;12.53;;;9.67;;
5042;SDS011;2540;50.928;6.856;2023-06-22T13:35:06;11.40;;;8.70;;
5042;SDS011;2540;50.928;6.856;2023-06-22T13:37:32;13.90;;;9.37;;
5042;SDS011;2540;50.928;6.856;2023-06-22T13:39:57;14.30;;;9.37;;
5042;SDS011;2540;50.928;6.856;2023-06-22T13:42:24;11.90;;;7.77;;
5042;SDS011;2540;50.928;6.856;2023-06-22T13:44:50;9.77;;;7.17;;
5042;SDS011;2540;50.928;6.856;2023-06-22T13:47:15;11.80;;;6.97;;
5042;SDS011;2540;50.928;6.856;2023-06-22T13:49:40;11.80;;;7.00;;
5042;SDS011;2540;50.928;6.856;2023-06-22T13:52:06;10.27;;;6.60;;
5042;SDS011;2540;50.928;6.856;2023-06-22T13:54:35;9.10;;;7.00;;
5042;SDS011;2540;50.928;6.856;2023-06-22T13:57:00;13.90;;;6.97;;
5042;SDS011;2540;50.928;6.856;2023-06-22T13:59:26;8.13;;;6.20;;
5042;SDS011;2540;50.928;6.856;2023-06-22T14:01:53;8.47;;;6.47;;
5042;SDS011;2540;50.928;6.856;2023-06-22T14:04:18;7.00;;;5.40;;
5042;SDS011;2540;50.928;6.856;2023-06-22T14:06:43;7.47;;;5.60;;
5042;SDS011;2540;50.928;6.856;2023-06-22T14:09:09;7.43;;;5.00;;
5042;SDS011;2540;50.928;6.856;2023-06-22T14:11:34;15.33;;;6.10;;
5042;SDS011;2540;50.928;6.856;2023-06-22T14:13:59;8.27;;;5.97;;
5042;SDS011;2540;50.928;6.856;2023-06-22T14:16:25;7.60;;;5.80;;
5042;SDS011;2540;50.928;6.856;2023-06-22T14:18:50;7.83;;;5.80;;
5042;SDS011;2540;50.928;6.856;2023-06-22T14:21:15;10.00;;;6.20;;
5042;SDS011;2540;50.928;6.856;2023-06-22T14:23:41;7.93;;;5.83;;
5042;SDS011;2540;50.928;6.856;2023-06-22T14:26:06;7.73;;;4.90;;
5042;SDS011;2540;50.928;6.856;2023-06-22T14:28:32;7.67;;;5.47;;
5042;SDS011;2540;50.928;6.856;2023-06-22T14:30:57;6.77;;;5.00;;
5042;SDS011;2540;50.928;6.856;2023-06-22T14:33:23;6.30;;;5.33;;
5042;SDS011;2540;50.928;6.856;2023-06-22T14:35:48;6.63;;;4.57;;
5042;SDS011;2540;50.928;6.856;2023-06-22T14:38:14;6.17;;;5.00;;
5042;SDS011;2540;50.928;6.856;2023-06-22T14:40:39;7.43;;;5.40;;
5042;SDS011;2540;50.928;6.856;2023-06-22T14:43:04;10.60;;;5.73;;
5042;SDS011;2540;50.928;6.856;2023-06-22T14:45:30;7.30;;;5.87;;
5042;SDS011;2540;50.928;6.856;2023-06-22T14:47:55;7.63;;;5.93;;
5042;SDS011;2540;50.928;6.856;2023-06-22T14:50:20;9.60;;;6.07;;
5042;SDS011;2540;50.928;6.856;2023-06-22T14:52:46;6.70;;;5.63;;
5042;SDS011;2540;50.928;6.856;2023-06-22T14:55:11;8.00;;;6.27;;
5042;SDS011;2540;50.928;6.856;2023-06-22T14:57:37;9.83;;;6.87;;
5042;SDS011;2540;50.928;6.856;2023-06-22T15:00:02;8.10;;;6.60;;
5042;SDS011;2540;50.928;6.856;2023-06-22T15:02:28;8.83;;;6.03;;
5042;SDS011;2540;50.928;6.856;2023-06-22T15:04:53;8.10;;;5.90;;
5042;SDS011;2540;50.928;6.856;2023-06-22T15:07:19;6.87;;;5.93;;